Tiempo atmosférico en la estación meteorológica de Salobreña, Granada (20 m.)



Fecha
DESCASC
Temp. máxima en grados centígrados (hora)
DESCASC
Temp. mínima en grados centígrados (hora)
DESCASC
Temp. media en grados centígrados
DESCASC
Racha de viento máxima en m/sg (hora)
DESCASC
Velocidad máxima media en intervalos de 10 minutos(hora)
DESCASC
Precipitaciones diarias en mm
DESCASC
Precipitaciones de 00:00 a 06:00 en mm
DESCASC
Precipitaciones de 06:00 a 12:00 en mm
DESCASC
Precipitaciones de 12:00 a 18:00 en mm
DESCASC
Precipitaciones de 18:00 a 24:00 en mm
DESCASC
29-10-2020 23.1 (14:40) 9.4 (06:20) 16.3 4.72 (14:50) 2.78 (00:40) 0 0 0 0 0
28-10-2020 20.7 (13:40) 9.1 (01:00) 14.9 5 (01:50) 3.06 (01:30) 0 0 0 0 0
27-10-2020 19.7 (11:20) 10.2 (00:00) 15 9.17 (09:30) 5 (06:20) 0 0 0 0 0
26-10-2020 21.9 (15:00) 13.5 (00:00) 17.7 15.83 (08:20) 9.44 (08:10) 0 0 0 0 0
25-10-2020 21.5 (15:40) 10.1 (00:00) 15.8 11.39 (13:40) 6.11 (14:40) 0 0 0 0 0
24-10-2020 21.9 (13:50) 12.6 (00:00) 17.3 10 (16:40) 5 (16:30) 0 0 0 0 0
23-10-2020 21.3 (15:00) 11.9 (00:00) 16.6 11.67 (17:00) 5.83 (15:20) 7.4 5.6 1.2 0.6 0
22-10-2020 20.3 (15:10) 15.8 (00:00) 18 10 (07:30) 5.56 (07:30) 5.6 0.2 0.2 0 5.2
21-10-2020 25.9 (13:50) 14 (00:00) 19.9 10 (01:20) 4.72 (01:20) 0.2 0 0 0 0.2
20-10-2020 24.9 (16:10) 12.6 (00:00) 18.8 12.22 (21:10) 7.22 (21:10) 0 0 0 0 0
19-10-2020 24 (13:40) 11 (00:00) 17.5 5.83 (15:40) 3.61 (17:30) 0 0 0 0 0
18-10-2020 21.8 (14:30) 10.4 (00:00) 16.1 6.67 (15:50) 3.61 (15:50) 0 0 0 0 0
17-10-2020 -- (--) -- (--) -- -- (--) -- (--) -- -- 0 0 0
16-10-2020 22.2 (11:40) 10.2 (00:00) 16.2 8.33 (04:00) 5.28 (03:00) 0 0 0 0 0
15-10-2020 23.3 (12:00) 11.1 (00:00) 17.2 7.22 (00:10) 3.89 (10:10) 0 0 0 0 0
14-10-2020 24 (18:40) 10.4 (00:00) 17.2 16.11 (16:10) 8.06 (15:30) 0 0 0 0 0
13-10-2020 25.3 (13:20) 12.1 (00:00) 18.7 6.94 (15:30) 4.17 (15:40) 0 0 0 0 0
12-10-2020 23.2 (13:10) 13.4 (00:00) 18.3 6.67 (13:50) 4.44 (14:20) 0 0 0 0 0
11-10-2020 25.8 (14:00) 15.4 (00:00) 20.6 4.17 (14:50) 2.5 (14:40) 0 0 0 0 0
10-10-2020 23.3 (16:50) 14.3 (00:00) 18.8 5 (13:30) 2.78 (13:30) 0 0 0 0 0
09-10-2020 24.8 (15:00) 13.9 (00:00) 19.3 6.11 (13:40) 3.06 (13:50) 0 0 0 0 0
08-10-2020 25.8 (14:00) 12.8 (00:00) 19.3 6.67 (12:30) 3.61 (12:30) 0 0 0 0 0
07-10-2020 25.3 (15:00) 11.8 (00:00) 18.5 5.28 (10:00) 2.78 (11:40) 0 0 0 0 0
06-10-2020 23.4 (11:10) 10.8 (00:00) 17.1 4.72 (09:00) 2.78 (16:10) 0 0 0 0 0
05-10-2020 25 (15:50) 13.4 (00:00) 19.2 7.78 (07:20) 4.44 (07:20) 0 0 0 0 0
04-10-2020 22.5 (21:10) 9.9 (00:00) 16.2 14.44 (16:30) 8.33 (17:10) 0 0 0 0 0
03-10-2020 23 (16:00) 14.2 (00:00) 18.6 14.72 (04:00) 8.61 (03:40) 0 0 0 0 0
02-10-2020 24.2 (01:20) 17.1 (00:00) 20.7 17.78 (22:40) 9.72 (21:20) 0.4 0 0 0 0.4
01-10-2020 26.4 (16:00) 14.8 (00:00) 20.6 13.89 (17:20) 6.67 (17:50) 0 0 0 0 0

Gráficas

Temp. máximas Temp. mínimas Temp. medias Precipitaciones Rachas de viento máximas Velocidades máximas media en intervalos de 10 minutos

Datos horarios

Fecha y hora oficial Temperatura (ºC) Velocidad del viento (km/h) Dirección del viento Racha (km/h) Dirección de racha Precipitación (mm) Presión (hPa) Tendencia (hPa) Humedad (%)
2020-10-30 23:00:00 13.5 5 Norte 8 Norte 0 -- -- 91
2020-10-30 22:00:00 13.6 6 Noroeste 11 Nordeste 0 -- -- 90
2020-10-30 21:00:00 14 9 Norte 12 Norte 0 -- -- 88
2020-10-30 20:00:00 14.3 5 Norte 9 Nordeste 0 -- -- 87
2020-10-30 19:00:00 15.6 4 Norte 5 Norte 0 -- -- 83
2020-10-30 18:00:00 19.3 0 Calma 10 Sudoeste 0 -- -- 73
2020-10-30 17:00:00 20.9 6 Sudoeste 13 Sur 0 -- -- 61
2020-10-30 16:00:00 22.1 7 Sur 17 Sudoeste 0 -- -- 59
2020-10-30 15:00:00 22.1 10 Sudoeste 16 Sudoeste 0 -- -- 61
2020-10-30 14:00:00 22.2 7 Sudoeste 17 Sudoeste 0 -- -- 61
2020-10-30 13:00:00 21.9 8 Sudoeste 16 Sudoeste 0 -- -- 63
2020-10-30 12:00:00 21 10 Sudoeste 16 Sudoeste 0 -- -- 66
2020-10-30 11:00:00 21.1 6 Sudoeste 15 Oeste 0 -- -- 63
2020-10-30 10:00:00 20 4 Oeste 8 Noroeste 0 -- -- 64
2020-10-30 09:00:00 14.9 3 Norte 9 Norte 0 -- -- 85
2020-10-30 08:00:00 11.3 8 Norte 11 Norte 0 -- -- 94
2020-10-30 07:00:00 11 8 Norte 11 Norte 0 -- -- 95
2020-10-30 06:00:00 10.9 7 Norte 10 Nordeste 0 -- -- 95
2020-10-30 05:00:00 10.8 3 Nordeste 9 Nordeste 0 -- -- 92
2020-10-30 04:00:00 12.6 8 Nordeste 13 Nordeste 0 -- -- 89
2020-10-30 03:00:00 11.9 8 Norte 11 Nordeste 0 -- -- 93
2020-10-30 02:00:00 11.6 6 Norte 9 Nordeste 0 -- -- 93
2020-10-30 01:00:00 12.3 7 Norte 10 Norte 0 -- -- 91
2020-10-30 00:00:00 12.2 6 Norte 9 Norte 0 -- -- 91
2020-10-29 23:00:00 12.8 5 Norte 10 Norte 0 -- -- 91
2020-10-29 22:00:00 13.1 5 Norte 8 Norte 0 -- -- 91
2020-10-29 21:00:00 13.9 4 Nordeste 9 Norte 0 -- -- 88
2020-10-29 20:00:00 15.1 8 Norte 15 Oeste 0 -- -- 83
2020-10-29 19:00:00 18.3 8 Noroeste 16 Oeste 0 -- -- 71
2020-10-29 18:00:00 20.3 5 Oeste 14 Sur 0 -- -- 58
2020-10-29 17:00:00 22 9 Sur 17 Oeste 0 -- -- 48
2020-10-29 16:00:00 22.8 7 Sudoeste 15 Oeste 0 -- -- 40
2020-10-29 15:00:00 22.9 8 Sudoeste 17 Sudoeste 0 -- -- 31
2020-10-29 14:00:00 22.9 7 Sudoeste 15 Sur 0 -- -- 29
2020-10-29 13:00:00 22.8 6 Oeste 13 Sur 0 -- -- 37
2020-10-29 12:00:00 21.4 8 Sur 13 Sudoeste 0 -- -- 51
2020-10-29 11:00:00 20.9 6 Sudoeste 9 Sur 0 -- -- 55
2020-10-29 10:00:00 19.6 0 Calma 3 Sudeste 0 -- -- 64
2020-10-29 09:00:00 14.5 0 Calma 8 Norte 0 -- -- 88
2020-10-29 08:00:00 9.6 4 Norte 8 Nordeste 0 -- -- 93
2020-10-29 07:00:00 9.7 6 Norte 9 Norte 0 -- -- 94
2020-10-29 06:00:00 9.7 4 Norte 8 Nordeste 0 -- -- 93
2020-10-29 05:00:00 10.2 5 Nordeste 10 Norte 0 -- -- 92
2020-10-29 04:00:00 10.5 8 Norte 11 Norte 0 -- -- 93
2020-10-29 03:00:00 10.2 6 Norte 10 Norte 0 -- -- 93
2020-10-29 02:00:00 10.1 3 Norte 7 Norte 0 -- -- 91
2020-10-29 01:00:00 11.5 7 Norte 14 Norte 0 -- -- 88
2020-10-29 00:00:00 10.9 7 Norte 10 Norte 0 -- -- 92
2020-10-28 23:00:00 11.2 5 Norte 9 Norte 0 -- -- 90
2020-10-28 22:00:00 11.5 4 Norte 9 Norte 0 -- -- 90
2020-10-28 21:00:00 12.1 4 Norte 8 Norte 0 -- -- 89
2020-10-28 20:00:00 12.8 4 Norte 9 Norte 0 -- -- 86
2020-10-28 19:00:00 14.7 5 Norte 7 Norte 0 -- -- 80
2020-10-28 18:00:00 18.1 0 Calma 6 Sudoeste 0 -- -- 64
2020-10-28 17:00:00 19.6 5 Sudoeste 12 Sudoeste 0 -- -- 53
2020-10-28 16:00:00 20.3 7 Sudoeste 12 Sudoeste 0 -- -- 58
2020-10-28 15:00:00 20.6 6 Sudoeste 14 Sudoeste 0 -- -- 55
2020-10-28 14:00:00 20.6 9 Sudoeste 14 Sudoeste 0 -- -- 58
2020-10-28 13:00:00 20 7 Sudoeste 14 Sudoeste 0 -- -- 56
2020-10-28 12:00:00 20 8 Sudoeste 15 Sudoeste 0 -- -- 56
2020-10-28 11:00:00 19.7 9 Sur 13 Sur 0 -- -- 55
2020-10-28 10:00:00 19.1 9 Sur 15 Nordeste 0 -- -- 48
2020-10-28 09:00:00 16.1 8 Este 18 Nordeste 0 -- -- 50
2020-10-28 08:00:00 10.9 8 Norte 13 Nordeste 0 -- -- 72
2020-10-28 07:00:00 11.5 10 Norte 18 Norte 0 -- -- 66
2020-10-28 06:00:00 9.6 7 Norte 13 Norte 0 -- -- 80
2020-10-28 05:00:00 10.3 4 Norte 12 Norte 0 -- -- 75
2020-10-28 04:00:00 12.8 6 Este 16 Nordeste 0 -- -- 62
2020-10-28 03:00:00 12.4 5 Este 17 Este 0 -- -- 65
2020-10-28 02:00:00 13 8 Nordeste 18 Nordeste 0 -- -- 63
2020-10-28 01:00:00 9.1 6 Norte 9 Norte 0 -- -- 91
2020-10-28 00:00:00 10.2 2 Este 10 Este 0 -- -- 86
2020-10-27 23:00:00 10.7 6 Nordeste 10 Nordeste 0 -- -- 87
2020-10-27 22:00:00 11.4 5 Norte 11 Nordeste 0 -- -- 86
2020-10-27 21:00:00 12.3 9 Nordeste 12 Nordeste 0 -- -- 84
2020-10-27 20:00:00 12.6 8 Nordeste 10 Nordeste 0 -- -- 85
2020-10-27 19:00:00 14.8 6 Norte 19 Oeste 0 -- -- 76
2020-10-27 18:00:00 17.3 12 Oeste 27 Oeste 0 -- -- 58
2020-10-27 17:00:00 18.5 11 Oeste 26 Sudoeste 0 -- -- 50
2020-10-27 16:00:00 19.1 12 Sudoeste 21 Oeste 0 -- -- 49
2020-10-27 15:00:00 19.2 12 Sudoeste 20 Sur 0 -- -- 45
2020-10-27 14:00:00 18.9 10 Sudoeste 18 Sudoeste 0 -- -- 41
2020-10-27 13:00:00 19.7 10 Sudoeste 21 Sudoeste 0 -- -- 31
2020-10-27 12:00:00 19.4 11 Oeste 19 Sudoeste 0 -- -- 43
2020-10-27 11:00:00 19.4 9 Oeste 18 Oeste 0 -- -- 39
2020-10-27 10:00:00 18.1 9 Nordeste 33 Este 0 -- -- 36
2020-10-27 09:00:00 15.4 16 Nordeste 30 Nordeste 0 -- -- 42
2020-10-27 08:00:00 13.2 13 Nordeste 28 Nordeste 0 -- -- 48
2020-10-27 07:00:00 13.6 17 Nordeste 29 Nordeste 0 -- -- 46
2020-10-27 06:00:00 13.7 16 Nordeste 31 Nordeste 0 -- -- 45
2020-10-27 05:00:00 13.7 14 Nordeste 26 Nordeste 0 -- -- 46
2020-10-27 04:00:00 14 15 Nordeste 25 Nordeste 0 -- -- 46
2020-10-27 03:00:00 14.5 16 Nordeste 28 Nordeste 0 -- -- 44
2020-10-27 02:00:00 14.7 14 Nordeste 28 Nordeste 0 -- -- 44
2020-10-27 01:00:00 14.8 10 Nordeste 27 Este 0 -- -- 43
2020-10-27 00:00:00 15.4 15 Nordeste 31 Nordeste 0 -- -- 42
2020-10-26 23:00:00 15.2 11 Nordeste 26 Nordeste 0 -- -- 42
2020-10-26 22:00:00 15.6 12 Nordeste 23 Nordeste 0 -- -- 39
2020-10-26 21:00:00 13.7 2 Nordeste 14 Noroeste 0 -- -- 55
2020-10-26 20:00:00 16.9 5 Norte 35 Norte 0 -- -- 34
2020-10-26 19:00:00 17.7 16 Norte 31 Norte 0 -- -- 31
2020-10-26 18:00:00 19.3 14 Noroeste 27 Noroeste 0 -- -- 24
2020-10-26 17:00:00 20.4 11 Noroeste 44 Noroeste 0 -- -- 22
2020-10-26 16:00:00 21.2 27 Norte 51 Norte 0 -- -- 20
2020-10-26 15:00:00 21.9 19 Norte 48 Norte 0 -- -- 25
2020-10-26 14:00:00 21.4 24 Norte 49 Norte 0 -- -- 25
2020-10-26 13:00:00 21 25 Norte 51 Norte 0 -- -- 31
2020-10-26 12:00:00 20.6 26 Nordeste 48 Norte 0 -- -- 36
2020-10-26 11:00:00 20.4 18 Norte 55 Norte 0 -- -- 36
2020-10-26 10:00:00 18.7 25 Norte 57 Norte 0 -- -- 44
2020-10-26 09:00:00 18.2 25 Norte 57 Norte 0 -- -- 47
2020-10-26 08:00:00 17.5 27 Norte 48 Norte 0 -- -- 52
2020-10-26 07:00:00 18.6 23 Norte 45 Noroeste 0 -- -- 50
2020-10-26 06:00:00 18.6 21 Norte 42 Norte 0 -- -- 57
2020-10-26 05:00:00 19.3 15 Noroeste 39 Norte 0 -- -- 57
2020-10-26 04:00:00 19.6 26 Norte 50 Norte 0 -- -- 57
2020-10-26 03:00:00 17.6 6 Norte 37 Oeste 0 -- -- 82
2020-10-26 02:00:00 17.8 15 Oeste 30 Oeste 0 -- -- 83
2020-10-26 01:00:00 17.9 15 Noroeste 30 Oeste 0 -- -- 76
2020-10-26 00:00:00 17.8 13 Noroeste 31 Oeste 0 -- -- 77
2020-10-25 23:00:00 14.6 2 Norte 21 Oeste 0 -- -- 84
2020-10-25 22:00:00 13.3 3 Nordeste 9 Norte 0 -- -- 89
2020-10-25 21:00:00 15.2 4 Norte 9 Sudoeste 0 -- -- 85
2020-10-25 20:00:00 17.6 3 Norte 21 Oeste 0 -- -- 75
2020-10-25 19:00:00 19.2 8 Oeste 33 Oeste 0 -- -- 73
2020-10-25 18:00:00 20.1 18 Oeste 35 Oeste 0 -- -- 68
2020-10-25 17:00:00 21 20 Oeste 40 Noroeste 0 -- -- 64
2020-10-25 16:00:00 21.5 19 Oeste 37 Oeste 0 -- -- 62
2020-10-25 15:00:00 21 19 Oeste 41 Noroeste 0 -- -- 61
2020-10-25 14:00:00 20.4 19 Oeste 41 Oeste 0 -- -- 69
2020-10-25 13:00:00 20 17 Oeste 36 Sudoeste 0 -- -- 66
2020-10-25 12:00:00 19.7 15 Oeste 28 Sudoeste 0 -- -- 64
2020-10-25 11:00:00 19.9 8 Oeste 17 Sudoeste 0 -- -- 63
2020-10-25 10:00:00 19.3 2 Este 10 Nordeste 0 -- -- 64
2020-10-25 09:00:00 14.5 2 Nordeste 10 Norte 0 -- -- 89
2020-10-25 08:00:00 10.2 5 Norte 10 Norte 0 -- -- 93
2020-10-25 07:00:00 11.1 8 Norte 12 Norte 0 -- -- 89
2020-10-25 06:00:00 11 9 Norte 12 Norte 0 -- -- 91
2020-10-25 05:00:00 11 8 Norte 11 Norte 0 -- -- 91
2020-10-25 04:00:00 10.9 8 Norte 10 Norte 0 -- -- 94
2020-10-25 03:00:00 11.5 2 Este 13 Nordeste 0 -- -- 91
2020-10-25 02:00:00 12.6 6 Nordeste 14 Nordeste 0 -- -- 90
2020-10-25 01:00:00 12.5 6 Norte 10 Norte 0 -- -- 91
2020-10-25 00:00:00 12.8 7 Norte 10 Norte 0 -- -- 91
2020-10-24 23:00:00 13.3 8 Norte 12 Nordeste 0 -- -- 92
2020-10-24 22:00:00 13.5 5 Norte 11 Nordeste 0 -- -- 91
2020-10-24 21:00:00 14.8 5 Norte 9 Norte 0 -- -- 89
2020-10-24 20:00:00 16.9 5 Norte 17 Oeste 0 -- -- 82
2020-10-24 19:00:00 19.3 8 Oeste 24 Sudoeste 0 -- -- 71
2020-10-24 18:00:00 20 12 Sudoeste 30 Sudoeste 0 -- -- 69
2020-10-24 17:00:00 20.1 17 Sudoeste 36 Oeste 0 -- -- 66
2020-10-24 16:00:00 20.5 14 Sudoeste 26 Sudoeste 0 -- -- 65
2020-10-24 15:00:00 21.5 10 Sudoeste 18 Sudoeste 0 -- -- 57
2020-10-24 14:00:00 21.8 8 Sudoeste 13 Sudoeste 0 -- -- 56
2020-10-24 13:00:00 21.1 6 Sudoeste 14 Sudoeste 0 -- -- 59
2020-10-24 12:00:00 20.6 8 Oeste 15 Sur 0 -- -- 64
2020-10-24 11:00:00 20.2 7 Nordeste 23 Nordeste 0 -- -- 59
2020-10-24 10:00:00 17.5 11 Nordeste 24 Nordeste 0 -- -- 66
2020-10-24 09:00:00 15.2 14 Nordeste 24 Nordeste 0 -- -- 72
2020-10-24 08:00:00 14.2 9 Norte 15 Nordeste 0 -- -- 80
2020-10-24 07:00:00 12.8 7 Norte 16 Norte 0 -- -- 86
2020-10-24 06:00:00 14.6 9 Nordeste 20 Nordeste 0 -- -- 76
2020-10-24 05:00:00 15.5 7 Nordeste 24 Nordeste 0 -- -- 72
2020-10-24 04:00:00 16.2 12 Nordeste 21 Nordeste 0 -- -- 69
2020-10-24 03:00:00 15.8 6 Nordeste 22 Nordeste 0 -- -- 69
2020-10-24 02:00:00 15.4 13 Nordeste 19 Nordeste 0 -- -- 71
2020-10-24 01:00:00 13.6 10 Nordeste 13 Nordeste 0 -- -- 85
2020-10-24 00:00:00 12.6 7 Norte 11 Nordeste 0 -- -- 92
2020-10-23 23:00:00 12.9 3 Nordeste 9 Nordeste 0 -- -- 92
2020-10-23 22:00:00 13.6 2 Nordeste 8 Oeste 0 -- -- 90
2020-10-23 21:00:00 15.5 4 Norte 10 Noroeste 0 -- -- 87
2020-10-23 20:00:00 18.5 5 Noroeste 23 Oeste 0 -- -- 77
2020-10-23 19:00:00 20.2 11 Oeste 32 Noroeste 0 -- -- 69
2020-10-23 18:00:00 20.3 18 Oeste 37 Oeste 0 -- -- 70
2020-10-23 17:00:00 20.6 20 Oeste 42 Oeste 0 -- -- 71
2020-10-23 16:00:00 20.6 18 Oeste 38 Sudoeste 0.2 -- -- 70
2020-10-23 15:00:00 21.3 15 Oeste 37 Oeste 0.2 -- -- 61
2020-10-23 14:00:00 20.7 14 Oeste 33 Oeste 0 -- -- 73
2020-10-23 13:00:00 19.8 14 Oeste 32 Oeste 0.2 -- -- 75
2020-10-23 12:00:00 19.9 8 Sudoeste 18 Sudoeste 0.2 -- -- 71
2020-10-23 11:00:00 19 4 Sudoeste 8 Sudoeste 0.2 -- -- 77
2020-10-23 10:00:00 15.1 3 Norte 9 Norte 0.2 -- -- 99
2020-10-23 09:00:00 12.1 7 Norte 10 Norte 0.2 -- -- 98
2020-10-23 08:00:00 12.3 3 Nordeste 9 Norte 0.2 -- -- 97
2020-10-23 07:00:00 13.2 5 Norte 10 Nordeste 0.2 -- -- 97
2020-10-23 06:00:00 14 5 Norte 10 Nordeste 0.2 -- -- 98
2020-10-23 05:00:00 13.6 5 Norte 10 Norte 0.4 -- -- 98
2020-10-23 04:00:00 13.6 8 Nordeste 12 Nordeste 0.6 -- -- 98
2020-10-23 03:00:00 13.8 4 Nordeste 10 Nordeste 0.8 -- -- 97
2020-10-23 02:00:00 14.2 5 Norte 9 Norte 1.2 -- -- 98
2020-10-23 01:00:00 14.7 6 Nordeste 9 Nordeste 2.4 -- -- 97
2020-10-23 00:00:00 15.8 3 Norte 6 Norte 3.4 -- -- 97
2020-10-22 23:00:00 16.3 4 Norte 7 Nordeste 1 -- -- 97
2020-10-22 22:00:00 16.9 3 Norte 8 Nordeste 0.2 -- -- 95
2020-10-22 21:00:00 17.5 3 Nordeste 9 Noroeste 0.4 -- -- 94
2020-10-22 20:00:00 18.1 4 Noroeste 10 Oeste 0.2 -- -- 91
2020-10-22 19:00:00 18.8 3 Sur 5 Sur 0 -- -- 88
2020-10-22 18:00:00 19.3 3 Sur 5 Sur 0 -- -- 83
2020-10-22 17:00:00 19.4 2 Sudoeste 6 Sur 0 -- -- 83
2020-10-22 16:00:00 19.7 5 Sudoeste 8 Sudoeste 0 -- -- 84
2020-10-22 15:00:00 20.2 0 Calma 10 Este 0 -- -- 86
2020-10-22 14:00:00 19.5 6 Nordeste 13 Nordeste 0 -- -- 91
2020-10-22 13:00:00 18.8 4 Nordeste 8 Nordeste 0 -- -- 96
2020-10-22 12:00:00 18.1 5 Nordeste 10 Nordeste 0 -- -- 96
2020-10-22 11:00:00 17.5 6 Nordeste 9 Nordeste 0.2 -- -- 97
2020-10-22 10:00:00 16.8 5 Nordeste 9 Norte 0 -- -- 96
2020-10-22 09:00:00 16.8 6 Norte 10 Norte 0 -- -- 93
2020-10-22 08:00:00 17.7 9 Norte 36 Oeste 0 -- -- 84
2020-10-22 07:00:00 17.1 5 Norte 10 Norte 0 -- -- 90
2020-10-22 06:00:00 17 9 Nordeste 12 Nordeste 0 -- -- 89
2020-10-22 05:00:00 17.1 3 Norte 7 Nordeste 0 -- -- 92
2020-10-22 04:00:00 17.4 4 Nordeste 10 Este 0 -- -- 86
2020-10-22 03:00:00 17 5 Nordeste 12 Nordeste 0 -- -- 91
2020-10-22 02:00:00 17.1 8 Norte 12 Norte 0.2 -- -- 92
2020-10-22 01:00:00 17.2 8 Nordeste 12 Nordeste 0 -- -- 92
2020-10-22 00:00:00 17.7 2 Nordeste 12 Sudeste 0 -- -- 90
2020-10-21 23:00:00 17.7 7 Nordeste 11 Nordeste 0 -- -- 90
2020-10-21 22:00:00 18.1 6 Norte 9 Norte 0 -- -- 92
2020-10-21 21:00:00 18.6 0 Calma 10 Norte 0.2 -- -- 91
2020-10-21 20:00:00 19.3 3 Noroeste 7 Sur 0 -- -- 86
2020-10-21 19:00:00 20.3 4 Sur 9 Sur 0 -- -- 82
2020-10-21 18:00:00 21.6 8 Sur 18 Sudoeste 0 -- -- 72
2020-10-21 17:00:00 21.9 9 Oeste 23 Oeste 0 -- -- 67
2020-10-21 16:00:00 23.7 9 Sudoeste 21 Oeste 0 -- -- 58
2020-10-21 15:00:00 25.3 8 Oeste 15 Oeste 0 -- -- 51
2020-10-21 14:00:00 25.9 9 Oeste 20 Oeste 0 -- -- 49
2020-10-21 13:00:00 24.9 4 Oeste 16 Oeste 0 -- -- 55
2020-10-21 12:00:00 24.8 9 Oeste 18 Sudoeste 0 -- -- 52
2020-10-21 11:00:00 23.7 10 Oeste 24 Oeste 0 -- -- 57
2020-10-21 10:00:00 21.4 9 Sudoeste 17 Noroeste 0 -- -- 70
2020-10-21 09:00:00 15.3 6 Noroeste 14 Este 0 -- -- 92
2020-10-21 08:00:00 14 5 Norte 12 Norte 0 -- -- 93
2020-10-21 07:00:00 14.9 4 Norte 11 Nordeste 0 -- -- 92
2020-10-21 06:00:00 15.4 7 Nordeste 11 Norte 0 -- -- 91
2020-10-21 05:00:00 17.5 4 Norte 14 Sudoeste 0 -- -- 85
2020-10-21 04:00:00 19.6 7 Sudoeste 17 Sudoeste 0 -- -- 80
2020-10-21 03:00:00 20.1 2 Oeste 26 Oeste 0 -- -- 82
2020-10-21 02:00:00 22.1 9 Sudoeste 36 Oeste 0 -- -- 72
2020-10-21 01:00:00 23 12 Oeste 27 Noroeste 0 -- -- 67
2020-10-21 00:00:00 19.8 9 Norte 18 Norte 0 -- -- 77
2020-10-20 23:00:00 19.4 3 Nordeste 17 Noroeste 0 -- -- 83
2020-10-20 22:00:00 20 10 Sudoeste 44 Oeste 0 -- -- 79
2020-10-20 21:00:00 19.6 23 Oeste 40 Oeste 0 -- -- 82
2020-10-20 20:00:00 20.2 4 Oeste 9 Noroeste 0 -- -- 77
2020-10-20 19:00:00 21.5 5 Noroeste 15 Noroeste 0 -- -- 68
2020-10-20 18:00:00 23 8 Nordeste 19 Noroeste 0 -- -- 66
2020-10-20 17:00:00 23.2 11 Oeste 21 Oeste 0 -- -- 60
2020-10-20 16:00:00 24.5 6 Sudoeste 16 Sudoeste 0 -- -- 54
2020-10-20 15:00:00 22.7 6 Sudoeste 17 Sur 0 -- -- 58
2020-10-20 14:00:00 22.1 4 Noroeste 18 Sur 0 -- -- 61
2020-10-20 13:00:00 21.4 9 Sudoeste 17 Sudoeste 0 -- -- 63
2020-10-20 12:00:00 21.3 6 Sudoeste 15 Sur 0 -- -- 62
2020-10-20 11:00:00 20.9 5 Sudoeste 9 Oeste 0 -- -- 66
2020-10-20 10:00:00 17.2 0 Calma 9 Norte 0 -- -- 78
2020-10-20 09:00:00 14.2 6 Nordeste 19 Nordeste 0 -- -- 86
2020-10-20 08:00:00 12.9 7 Nordeste 11 Nordeste 0 -- -- 91
2020-10-20 07:00:00 12.9 7 Norte 9 Norte 0 -- -- 92
2020-10-20 06:00:00 14.1 5 Nordeste 10 Nordeste 0 -- -- 87
2020-10-20 05:00:00 14.3 6 Norte 10 Norte 0 -- -- 89
2020-10-20 04:00:00 13.7 5 Norte 9 Norte 0 -- -- 91
2020-10-20 03:00:00 14.4 5 Nordeste 15 Este 0 -- -- 89
2020-10-20 02:00:00 13.6 7 Nordeste 11 Nordeste 0 -- -- 94
2020-10-20 01:00:00 13.4 6 Norte 8 Norte 0 -- -- 92
2020-10-20 00:00:00 14.3 3 Norte 9 Norte 0 -- -- 90
2020-10-19 23:00:00 14.9 5 Norte 8 Norte 0 -- -- 89
2020-10-19 22:00:00 16.1 5 Norte 11 Noroeste 0 -- -- 85
2020-10-19 21:00:00 18.7 7 Oeste 16 Oeste 0 -- -- 81
2020-10-19 20:00:00 18.9 5 Noroeste 20 Noroeste 0 -- -- 81
2020-10-19 19:00:00 19.7 10 Oeste 18 Oeste 0 -- -- 75
2020-10-19 18:00:00 21.8 12 Sur 20 Sur 0 -- -- 58
2020-10-19 17:00:00 22.7 7 Sudoeste 18 Sur 0 -- -- 53
2020-10-19 16:00:00 22.6 10 Sudoeste 21 Sur 0 -- -- 44
2020-10-19 15:00:00 23.3 5 Sudoeste 20 Sudoeste 0 -- -- 31
2020-10-19 14:00:00 23.3 11 Oeste 18 Oeste 0 -- -- 25
2020-10-19 13:00:00 23.3 6 Sudoeste 14 Sur 0 -- -- 22
2020-10-19 12:00:00 23 7 Sudoeste 12 Sudoeste 0 -- -- 21
2020-10-19 11:00:00 20.2 5 Nordeste 12 Nordeste 0 -- -- 45
2020-10-19 10:00:00 16.3 6 Nordeste 15 Nordeste 0 -- -- 58
2020-10-19 09:00:00 13.3 9 Nordeste 17 Este 0 -- -- 63
2020-10-19 08:00:00 12.2 10 Nordeste 16 Nordeste 0 -- -- 69
2020-10-19 07:00:00 12.1 9 Nordeste 13 Norte 0 -- -- 72
2020-10-19 06:00:00 12.7 7 Nordeste 15 Nordeste 0 -- -- 73
2020-10-19 05:00:00 12.4 8 Nordeste 15 Nordeste 0 -- -- 77
2020-10-19 04:00:00 13.1 9 Nordeste 15 Nordeste 0 -- -- 76
2020-10-19 03:00:00 13.1 10 Nordeste 16 Nordeste 0 -- -- 78
2020-10-19 02:00:00 12.3 10 Nordeste 13 Nordeste 0 -- -- 84
2020-10-19 01:00:00 11.5 7 Nordeste 12 Nordeste 0 -- -- 86
2020-10-19 00:00:00 11.2 5 Norte 9 Nordeste 0 -- -- 84
2020-10-18 23:00:00 12.4 8 Nordeste 11 Norte 0 -- -- 77
2020-10-18 22:00:00 12.8 6 Norte 9 Norte 0 -- -- 82
2020-10-18 21:00:00 14.1 7 Norte 12 Norte 0 -- -- 79
2020-10-18 20:00:00 16.2 7 Norte 10 Norte 0 -- -- 75
2020-10-18 19:00:00 19.7 5 Sudoeste 15 Sudoeste 0 -- -- 62
2020-10-18 18:00:00 20.5 7 Sudoeste 22 Sudoeste 0 -- -- 64
2020-10-18 17:00:00 21.1 6 Sudoeste 22 Sudoeste 0 -- -- 66
2020-10-18 16:00:00 21.4 10 Sur 24 Sur 0 -- -- 62
2020-10-18 15:00:00 21.3 7 Sudoeste 20 Sudoeste 0 -- -- 63
2020-10-18 14:00:00 21.4 7 Oeste 16 Sudoeste 0 -- -- 61
2020-10-18 13:00:00 21.7 8 Sur 17 Sudoeste 0 -- -- 56
2020-10-18 12:00:00 21 5 Sur 12 Sudoeste 0 -- -- 58
2020-10-18 11:00:00 20.1 4 Sudoeste 10 Nordeste 0 -- -- 51
2020-10-18 10:00:00 16.1 7 Nordeste 15 Nordeste 0 -- -- 67
2020-10-18 09:00:00 11.9 7 Nordeste 13 Este 0 -- -- 80
2020-10-18 08:00:00 -- -- -- -- -- -- -- -- --
2020-10-18 07:00:00 -- -- -- -- -- -- -- -- --
2020-10-18 06:00:00 -- -- -- -- -- -- -- -- --
2020-10-18 05:00:00 -- -- -- -- -- -- -- -- --
2020-10-18 04:00:00 -- -- -- -- -- -- -- -- --
2020-10-18 03:00:00 -- -- -- -- -- -- -- -- --
2020-10-18 02:00:00 -- -- -- -- -- -- -- -- --
2020-10-18 01:00:00 -- -- -- -- -- -- -- -- --
2020-10-18 00:00:00 -- -- -- -- -- -- -- -- --
2020-10-17 23:00:00 -- -- -- -- -- -- -- -- --
2020-10-17 22:00:00 -- -- -- -- -- -- -- -- --
2020-10-17 21:00:00 -- -- -- -- -- -- -- -- --
2020-10-17 20:00:00 -- -- -- -- -- -- -- -- --
2020-10-17 19:00:00 -- -- -- -- -- -- -- -- --
2020-10-17 18:00:00 -- -- -- -- -- -- -- -- --
2020-10-17 17:00:00 -- -- -- -- -- -- -- -- --
2020-10-17 16:00:00 -- -- -- -- -- -- -- -- --
2020-10-17 15:00:00 -- -- -- -- -- -- -- -- --
2020-10-17 14:00:00 -- -- -- -- -- -- -- -- --
2020-10-17 13:00:00 -- -- -- -- -- -- -- -- --
2020-10-17 12:00:00 -- -- -- -- -- -- -- -- --
2020-10-17 11:00:00 -- -- -- -- -- -- -- -- --
2020-10-17 10:00:00 -- -- -- -- -- -- -- -- --
2020-10-17 09:00:00 -- -- -- -- -- -- -- -- --
2020-10-17 08:00:00 -- -- -- -- -- -- -- -- --
2020-10-17 07:00:00 -- -- -- -- -- -- -- -- --
2020-10-17 06:00:00 -- -- -- -- -- -- -- -- --
2020-10-17 05:00:00 -- -- -- -- -- -- -- -- --
2020-10-17 04:00:00 -- -- -- -- -- -- -- -- --
2020-10-17 03:00:00 10.7 7 Nordeste 13 Nordeste 0 -- -- 86
2020-10-17 02:00:00 11.2 6 Nordeste 13 Nordeste 0 -- -- 87
2020-10-17 01:00:00 11.1 6 Nordeste 11 Norte 0 -- -- 90
2020-10-17 00:00:00 11.3 4 Norte 9 Nordeste 0 -- -- 88
2020-10-16 23:00:00 12.4 8 Nordeste 12 Norte 0 -- -- 87
2020-10-16 22:00:00 13 6 Norte 12 Norte 0 -- -- 87
2020-10-16 21:00:00 14.2 3 Norte 5 Norte 0 -- -- 85
2020-10-16 20:00:00 16.3 3 Norte 7 Sur 0 -- -- 78
2020-10-16 19:00:00 19.1 5 Sur 12 Sur 0 -- -- 62
2020-10-16 18:00:00 20.5 7 Sur 14 Sudoeste 0 -- -- 55
2020-10-16 17:00:00 21.1 8 Sudoeste 14 Sudoeste 0 -- -- 49
2020-10-16 16:00:00 -- 8 Sudoeste 16 Sur 0 -- -- --
2020-10-16 15:00:00 21.9 10 Sudoeste 23 Sur 0 -- -- 46
2020-10-16 14:00:00 21.4 10 Sudoeste 22 Oeste 0 -- -- 44
2020-10-16 13:00:00 21.5 12 Sudoeste 25 Sur 0 -- -- 43
2020-10-16 12:00:00 22.1 10 Sur 17 Sudoeste 0 -- -- 34
2020-10-16 11:00:00 20.8 6 Este 23 Nordeste 0 -- -- 31
2020-10-16 10:00:00 17.2 9 Este 27 Nordeste 0 -- -- 39
2020-10-16 09:00:00 14.5 14 Nordeste 23 Nordeste 0 -- -- 43
2020-10-16 08:00:00 14.6 14 Nordeste 25 Nordeste 0 -- -- 42
2020-10-16 07:00:00 15.3 13 Nordeste 27 Nordeste 0 -- -- 40
2020-10-16 06:00:00 15.8 17 Nordeste 28 Norte 0 -- -- 37
2020-10-16 05:00:00 16.1 15 Nordeste 25 Nordeste 0 -- -- 39
2020-10-16 04:00:00 16.4 17 Nordeste 30 Nordeste 0 -- -- 39
2020-10-16 03:00:00 16.3 19 Nordeste 30 Nordeste 0 -- -- 39
2020-10-16 02:00:00 13.7 12 Nordeste 18 Nordeste 0 -- -- 58
2020-10-16 01:00:00 11.6 10 Nordeste 15 Nordeste 0 -- -- 79
2020-10-16 00:00:00 11.3 5 Norte 11 Noroeste 0 -- -- 84
2020-10-15 23:00:00 11.9 3 Norte 10 Norte 0 -- -- 84
2020-10-15 22:00:00 13.4 8 Norte 12 Nordeste 0 -- -- 78
2020-10-15 21:00:00 14 5 Norte 8 Norte 0 -- -- 84
2020-10-15 20:00:00 16.8 3 Nordeste 12 Noroeste 0 -- -- 72
2020-10-15 19:00:00 19.8 5 Oeste 19 Oeste 0 -- -- 53
2020-10-15 18:00:00 21.1 10 Oeste 23 Oeste 0 -- -- 47
2020-10-15 17:00:00 21.8 10 Sudoeste 22 Oeste 0 -- -- 45
2020-10-15 16:00:00 21.7 12 Oeste 21 Oeste 0 -- -- 46
2020-10-15 15:00:00 21.7 13 Oeste 23 Sudoeste 0 -- -- 46
2020-10-15 14:00:00 21.7 10 Sudoeste 22 Oeste 0 -- -- 44
2020-10-15 13:00:00 20.9 13 Oeste 24 Sudoeste 0 -- -- 56
2020-10-15 12:00:00 23.3 5 Sudoeste 16 Oeste 0 -- -- 36
2020-10-15 11:00:00 21 7 Nordeste 21 Nordeste 0 -- -- 37
2020-10-15 10:00:00 17.1 12 Nordeste 18 Nordeste 0 -- -- 46
2020-10-15 09:00:00 12.4 6 Nordeste 10 Nordeste 0 -- -- 71
2020-10-15 08:00:00 11.9 6 Norte 13 Nordeste 0 -- -- 70
2020-10-15 07:00:00 12.7 8 Nordeste 17 Nordeste 0 -- -- 64
2020-10-15 06:00:00 12.1 8 Nordeste 12 Norte 0 -- -- 73
2020-10-15 05:00:00 11.5 2 Nordeste 10 Norte 0 -- -- 75
2020-10-15 04:00:00 12.3 7 Norte 11 Norte 0 -- -- 70
2020-10-15 03:00:00 13.3 8 Norte 11 Norte 0 -- -- 63
2020-10-15 02:00:00 15.8 2 Noroeste 12 Este 0 -- -- 56
2020-10-15 01:00:00 19.1 5 Este 26 Nordeste 0 -- -- 33
2020-10-15 00:00:00 21 13 Norte 33 Nordeste 0 -- -- 27
2020-10-14 23:00:00 21 10 Norte 30 Noroeste 0 -- -- 27
2020-10-14 22:00:00 21.3 13 Norte 51 Norte 0 -- -- 27
2020-10-14 21:00:00 22 25 Noroeste 44 Noroeste 0 -- -- 24
2020-10-14 20:00:00 22.4 21 Norte 41 Noroeste 0 -- -- 25
2020-10-14 19:00:00 23.6 19 Norte 38 Noroeste 0 -- -- 24
2020-10-14 18:00:00 20.5 18 Oeste 44 Oeste 0 -- -- 64
2020-10-14 17:00:00 20.9 26 Oeste 58 Oeste 0 -- -- 62
2020-10-14 16:00:00 20.8 28 Oeste 56 Oeste 0 -- -- 61
2020-10-14 15:00:00 20.6 27 Oeste 51 Oeste 0 -- -- 62
2020-10-14 14:00:00 21.2 23 Oeste 51 Oeste 0 -- -- 57
2020-10-14 13:00:00 20.9 24 Oeste 50 Oeste 0 -- -- 63
2020-10-14 12:00:00 22 14 Oeste 27 Oeste 0 -- -- 62
2020-10-14 11:00:00 20.5 3 Norte 9 Oeste 0 -- -- 68
2020-10-14 10:00:00 16.3 2 Este 7 Nordeste 0 -- -- 89
2020-10-14 09:00:00 10.9 5 Norte 9 Norte 0 -- -- 95
2020-10-14 08:00:00 10.6 5 Norte 10 Norte 0 -- -- 94
2020-10-14 07:00:00 10.7 3 Nordeste 10 Norte 0 -- -- 92
2020-10-14 06:00:00 11.1 6 Norte 10 Nordeste 0 -- -- 92
2020-10-14 05:00:00 11.6 6 Norte 11 Nordeste 0 -- -- 87
2020-10-14 04:00:00 12.2 6 Norte 13 Nordeste 0 -- -- 85
2020-10-14 03:00:00 11.8 7 Nordeste 14 Nordeste 0 -- -- 89
2020-10-14 02:00:00 12.4 9 Nordeste 12 Nordeste 0 -- -- 90
2020-10-14 01:00:00 12.5 8 Norte 11 Norte 0 -- -- 92
2020-10-14 00:00:00 12.8 8 Norte 11 Nordeste 0 -- -- 91
2020-10-13 23:00:00 12.9 6 Norte 9 Nordeste 0 -- -- 90
2020-10-13 22:00:00 13.8 6 Nordeste 10 Nordeste 0 -- -- 90
2020-10-13 21:00:00 14.7 4 Norte 5 Norte 0 -- -- 87
2020-10-13 20:00:00 17.1 4 Norte 15 Oeste 0 -- -- 81
2020-10-13 19:00:00 20 7 Oeste 21 Sudoeste 0 -- -- 71
2020-10-13 18:00:00 20.1 12 Sudoeste 23 Sudoeste 0 -- -- 69
2020-10-13 17:00:00 20.6 13 Sudoeste 23 Sudoeste 0 -- -- 67
2020-10-13 16:00:00 20.8 13 Sudoeste 25 Sudoeste 0 -- -- 65
2020-10-13 15:00:00 21 14 Sudoeste 25 Sudoeste 0 -- -- 66
2020-10-13 14:00:00 22.2 9 Sudoeste 21 Sudoeste 0 -- -- 58
2020-10-13 13:00:00 20.5 12 Sudoeste 23 Oeste 0 -- -- 70
2020-10-13 12:00:00 20.7 11 Sudoeste 19 Sudoeste 0 -- -- 62
2020-10-13 11:00:00 20.7 6 Nordeste 19 Este 0 -- -- 45
2020-10-13 10:00:00 17.2 8 Nordeste 19 Nordeste 0 -- -- 57
2020-10-13 09:00:00 13.1 9 Nordeste 17 Nordeste 0 -- -- 71
2020-10-13 08:00:00 12.5 10 Nordeste 14 Nordeste 0 -- -- 77
2020-10-13 07:00:00 12.4 10 Nordeste 14 Nordeste 0 -- -- 82
2020-10-13 06:00:00 12.3 8 Nordeste 13 Nordeste 0 -- -- 84
2020-10-13 05:00:00 12.9 8 Nordeste 14 Nordeste 0 -- -- 81
2020-10-13 04:00:00 -- -- -- -- -- -- -- -- --
2020-10-13 03:00:00 13 8 Nordeste 14 Nordeste 0 -- -- 85
2020-10-13 02:00:00 13.1 8 Nordeste 12 Nordeste 0 -- -- 84
2020-10-13 01:00:00 -- -- -- -- -- -- -- -- --
2020-10-13 00:00:00 13.4 7 Norte 12 Nordeste 0 -- -- 84
2020-10-12 23:00:00 13.7 9 Nordeste 11 Nordeste 0 -- -- 83
2020-10-12 22:00:00 14 8 Nordeste 10 Norte 0 -- -- 82
2020-10-12 21:00:00 14.9 4 Norte 8 Norte 0 -- -- 78
2020-10-12 20:00:00 17.8 0 Calma 14 Sudeste 0 -- -- 68
2020-10-12 19:00:00 20.2 8 Sur 19 Sudeste 0 -- -- 59
2020-10-12 18:00:00 -- -- -- -- -- -- -- -- --
2020-10-12 17:00:00 21.9 14 Sur 23 Sur 0 -- -- 52
2020-10-12 16:00:00 22.4 14 Sur 23 Sur 0 -- -- 50
2020-10-12 15:00:00 22.5 15 Sur 23 Sur 0 -- -- 50
2020-10-12 14:00:00 22.6 14 Sur 24 Sur 0 -- -- 56
2020-10-12 13:00:00 23 13 Sur 20 Sur 0 -- -- 48
2020-10-12 12:00:00 22.2 12 Sur 20 Sur 0 -- -- 49
2020-10-12 11:00:00 20.9 4 Sur 9 Este 0 -- -- 65
2020-10-12 10:00:00 17.4 4 Nordeste 14 Nordeste 0 -- -- 55
2020-10-12 09:00:00 13.8 8 Nordeste 14 Nordeste 0 -- -- 71
2020-10-12 08:00:00 14.8 12 Nordeste 14 Este 0 -- -- 64
2020-10-12 07:00:00 15.1 10 Nordeste 13 Nordeste 0 -- -- 71
2020-10-12 06:00:00 14.8 9 Nordeste 12 Nordeste 0 -- -- 82
2020-10-12 05:00:00 14.4 9 Nordeste 13 Nordeste 0 -- -- 88
2020-10-12 04:00:00 -- -- -- -- -- -- -- -- --
2020-10-12 03:00:00 14.4 8 Nordeste 13 Nordeste 0 -- -- 93
2020-10-12 02:00:00 14.3 7 Norte 11 Norte 0 -- -- 93
2020-10-12 01:00:00 15 6 Norte 12 Nordeste 0 -- -- 91
2020-10-12 00:00:00 15.5 7 Norte 10 Norte 0 -- -- 90
2020-10-11 23:00:00 15.9 8 Nordeste 14 Nordeste 0 -- -- 89
2020-10-11 22:00:00 16.2 6 Norte 9 Norte 0 -- -- 88
2020-10-11 21:00:00 -- -- -- -- -- -- -- -- --
2020-10-11 20:00:00 -- -- -- -- -- -- -- -- --
2020-10-11 19:00:00 22.6 4 Sudoeste 9 Sur 0 -- -- 63
2020-10-11 18:00:00 23.9 5 Sudoeste 11 Sudoeste 0 -- -- 60
2020-10-11 17:00:00 24.5 8 Sudoeste 13 Sur 0 -- -- 58
2020-10-11 16:00:00 25.2 8 Sudoeste 15 Sudoeste 0 -- -- 56
2020-10-11 15:00:00 25.4 8 Sudoeste 15 Sudoeste 0 -- -- 57
2020-10-11 14:00:00 25.8 7 Oeste 14 Sudoeste 0 -- -- 54
2020-10-11 13:00:00 25.1 7 Sudoeste 12 Sudoeste 0 -- -- 57
2020-10-11 12:00:00 23.3 7 Oeste 12 Oeste 0 -- -- 65
2020-10-11 11:00:00 21 4 Nordeste 10 Este 0 -- -- 76
2020-10-11 10:00:00 19 6 Nordeste 12 Este 0 -- -- 83
2020-10-11 09:00:00 18.3 4 Nordeste 7 Nordeste 0 -- -- 88
2020-10-11 08:00:00 18.4 4 Nordeste 6 Nordeste 0 -- -- 90
2020-10-11 07:00:00 18.5 2 Nordeste 6 Nordeste 0 -- -- 91
2020-10-11 06:00:00 18.5 4 Nordeste 5 Nordeste 0 -- -- 92
2020-10-11 05:00:00 18.5 2 Sudeste 4 Norte 0 -- -- 92
2020-10-11 04:00:00 18.4 3 Norte 5 Nordeste 0 -- -- 91
2020-10-11 03:00:00 18.2 4 Nordeste 8 Nordeste 0 -- -- 91
2020-10-11 02:00:00 17.8 5 Nordeste 10 Nordeste 0 -- -- 94
2020-10-11 01:00:00 16.7 6 Nordeste 9 Norte 0 -- -- 96
2020-10-11 00:00:00 16 6 Nordeste 9 Norte 0 -- -- 94
2020-10-10 23:00:00 16.4 6 Norte 9 Nordeste 0 -- -- 93
2020-10-10 22:00:00 17 7 Nordeste 10 Norte 0 -- -- 91
2020-10-10 21:00:00 18.3 4 Norte 8 Oeste 0 -- -- 86
2020-10-10 20:00:00 20.4 4 Oeste 9 Oeste 0 -- -- 80
2020-10-10 19:00:00 22 4 Oeste 12 Sur 0 -- -- 75
2020-10-10 18:00:00 22.9 6 Sudoeste 15 Sudoeste 0 -- -- 72
2020-10-10 17:00:00 23.3 7 Sudoeste 12 Sudoeste 0 -- -- 73
2020-10-10 16:00:00 22.9 6 Sudoeste 13 Sudoeste 0 -- -- 75
2020-10-10 15:00:00 22.5 8 Sudoeste 15 Sur 0 -- -- 75
2020-10-10 14:00:00 22.2 9 Sudoeste 18 Sudoeste 0 -- -- 78
2020-10-10 13:00:00 22.9 7 Sudoeste 17 Sudoeste 0 -- -- 74
2020-10-10 12:00:00 22.8 8 Sur 13 Sur 0 -- -- 73
2020-10-10 11:00:00 21.5 3 Sudoeste 10 Nordeste 0 -- -- 74
2020-10-10 10:00:00 18.6 6 Nordeste 13 Nordeste 0 -- -- 80
2020-10-10 09:00:00 14.8 8 Nordeste 11 Nordeste 0 -- -- 92
2020-10-10 08:00:00 14.5 6 Norte 12 Nordeste 0 -- -- 92
2020-10-10 07:00:00 14.3 8 Nordeste 12 Nordeste 0 -- -- 94
2020-10-10 06:00:00 14.5 6 Nordeste 10 Norte 0 -- -- 94
2020-10-10 05:00:00 15.3 8 Nordeste 10 Nordeste 0 -- -- 94
2020-10-10 04:00:00 15.5 7 Nordeste 11 Nordeste 0 -- -- 95
2020-10-10 03:00:00 15.5 5 Norte 10 Nordeste 0 -- -- 94
2020-10-10 02:00:00 16.1 8 Nordeste 10 Nordeste 0 -- -- 95
2020-10-10 01:00:00 15.9 6 Norte 10 Norte 0 -- -- 95
2020-10-10 00:00:00 16.1 4 Norte 8 Norte 0 -- -- 94
2020-10-09 23:00:00 16.4 6 Norte 9 Norte 0 -- -- 93
2020-10-09 22:00:00 17.1 4 Norte 9 Norte 0 -- -- 92
2020-10-09 21:00:00 17.9 4 Norte 8 Nordeste 0 -- -- 89
2020-10-09 20:00:00 19.8 5 Norte 7 Norte 0 -- -- 84
2020-10-09 19:00:00 21.6 4 Sudoeste 15 Sudoeste 0 -- -- 76
2020-10-09 18:00:00 22.2 8 Sudoeste 14 Oeste 0 -- -- 75
2020-10-09 17:00:00 22.1 8 Oeste 17 Sudoeste 0 -- -- 77
2020-10-09 16:00:00 23.2 8 Sudoeste 17 Sudoeste 0 -- -- 72
2020-10-09 15:00:00 24.8 9 Oeste 18 Sudoeste 0 -- -- 65
2020-10-09 14:00:00 24.2 9 Oeste 22 Oeste 0 -- -- 68
2020-10-09 13:00:00 23.1 7 Oeste 18 Oeste 0 -- -- 73
2020-10-09 12:00:00 23.4 8 Sudoeste 15 Oeste 0 -- -- 72
2020-10-09 11:00:00 22.6 5 Sudoeste 7 Sur 0 -- -- 64
2020-10-09 10:00:00 18.9 2 Nordeste 11 Norte 0 -- -- 79
2020-10-09 09:00:00 14.6 4 Norte 9 Norte 0 -- -- 93
2020-10-09 08:00:00 14.3 6 Norte 10 Nordeste 0 -- -- 92
2020-10-09 07:00:00 15.1 9 Nordeste 14 Nordeste 0 -- -- 87
2020-10-09 06:00:00 14.4 8 Nordeste 10 Norte 0 -- -- 92
2020-10-09 05:00:00 14 7 Nordeste 10 Este 0 -- -- 92
2020-10-09 04:00:00 14.2 6 Nordeste 8 Nordeste 0 -- -- 92
2020-10-09 03:00:00 14.6 5 Norte 9 Norte 0 -- -- 90
2020-10-09 02:00:00 15.2 7 Norte 9 Norte 0 -- -- 88
2020-10-09 01:00:00 15.5 8 Norte 11 Norte 0 -- -- 86
2020-10-09 00:00:00 15.7 7 Norte 9 Norte 0 -- -- 86
2020-10-08 23:00:00 16 7 Norte 9 Norte 0 -- -- 86
2020-10-08 22:00:00 16.7 5 Norte 7 Norte 0 -- -- 84
2020-10-08 21:00:00 17.9 5 Norte 8 Norte 0 -- -- 82
2020-10-08 20:00:00 20.9 2 Norte 15 Oeste 0 -- -- 69
2020-10-08 19:00:00 23.5 8 Sudoeste 17 Sudoeste 0 -- -- 57
2020-10-08 18:00:00 24.8 8 Oeste 18 Sudoeste 0 -- -- 54
2020-10-08 17:00:00 25.2 8 Sudoeste 18 Sudoeste 0 -- -- 51
2020-10-08 16:00:00 25.6 9 Sudoeste 17 Oeste 0 -- -- 49
2020-10-08 15:00:00 24.8 11 Sudoeste 21 Sudoeste 0 -- -- 51
2020-10-08 14:00:00 25.8 8 Sudoeste 18 Sudoeste 0 -- -- 49
2020-10-08 13:00:00 24.1 11 Sudoeste 24 Oeste 0 -- -- 54
2020-10-08 12:00:00 23.6 10 Sudoeste 21 Oeste 0 -- -- 52
2020-10-08 11:00:00 23.5 7 Oeste 13 Oeste 0 -- -- 52
2020-10-08 10:00:00 20 0 Calma 10 Noroeste 0 -- -- 65
2020-10-08 09:00:00 14.4 8 Nordeste 13 Nordeste 0 -- -- 84
2020-10-08 08:00:00 12.8 6 Norte 10 Nordeste 0 -- -- 90
2020-10-08 07:00:00 13.7 6 Norte 10 Nordeste 0 -- -- 86
2020-10-08 06:00:00 14.8 7 Nordeste 12 Norte 0 -- -- 79
2020-10-08 05:00:00 15.2 4 Norte 13 Nordeste 0 -- -- 78
2020-10-08 04:00:00 17.9 11 Nordeste 17 Nordeste 0 -- -- 64
2020-10-08 03:00:00 17.2 12 Nordeste 15 Nordeste 0 -- -- 68
2020-10-08 02:00:00 16.1 9 Nordeste 12 Nordeste 0 -- -- 76
2020-10-08 01:00:00 16.1 0 Calma 15 Nordeste 0 -- -- 76
2020-10-08 00:00:00 15.7 6 Nordeste 15 Nordeste 0 -- -- 79
2020-10-07 23:00:00 16.6 3 Nordeste 10 Nordeste 0 -- -- 74
2020-10-07 22:00:00 16.3 9 Norte 12 Norte 0 -- -- 77
2020-10-07 21:00:00 17 4 Norte 5 Norte 0 -- -- 82
2020-10-07 20:00:00 20.1 3 Nordeste 8 Noroeste 0 -- -- 69
2020-10-07 19:00:00 24 3 Sur 7 Sur 0 -- -- 51
2020-10-07 18:00:00 24.5 4 Sur 12 Sudoeste 0 -- -- 51
2020-10-07 17:00:00 24.1 9 Sudoeste 14 Sudoeste 0 -- -- 50
2020-10-07 16:00:00 24.9 8 Sudoeste 15 Sudoeste 0 -- -- 47
2020-10-07 15:00:00 25.3 7 Sudoeste 13 Sudoeste 0 -- -- 43
2020-10-07 14:00:00 23.8 6 Sur 12 Sur 0 -- -- 54
2020-10-07 13:00:00 23.1 7 Sudoeste 14 Sur 0 -- -- 53
2020-10-07 12:00:00 23 5 Sudoeste 15 Sur 0 -- -- 57
2020-10-07 11:00:00 23.3 6 Sur 13 Sudeste 0 -- -- 53
2020-10-07 10:00:00 20.2 7 Nordeste 19 Nordeste 0 -- -- 63
2020-10-07 09:00:00 13.8 8 Norte 13 Nordeste 0 -- -- 90
2020-10-07 08:00:00 12.2 8 Norte 11 Norte 0 -- -- 93
2020-10-07 07:00:00 12.2 3 Nordeste 9 Norte 0 -- -- 93
2020-10-07 06:00:00 12.2 7 Norte 9 Norte 0 -- -- 94
2020-10-07 05:00:00 12 5 Norte 9 Norte 0 -- -- 94
2020-10-07 04:00:00 12.2 4 Norte 7 Nordeste 0 -- -- 94
2020-10-07 03:00:00 12.4 2 Norte 8 Este 0 -- -- 93
2020-10-07 02:00:00 12.8 0 Calma 8 Nordeste 0 -- -- 91
2020-10-07 01:00:00 13.3 4 Norte 7 Nordeste 0 -- -- 92
2020-10-07 00:00:00 13.6 3 Norte 6 Norte 0 -- -- 91
2020-10-06 23:00:00 14 4 Norte 7 Norte 0 -- -- 88
2020-10-06 22:00:00 15 4 Nordeste 7 Norte 0 -- -- 86
2020-10-06 21:00:00 16.6 4 Norte 7 Norte 0 -- -- 86
2020-10-06 20:00:00 19.7 2 Nordeste 8 Sur 0 -- -- 78
2020-10-06 19:00:00 22.3 4 Sudoeste 9 Sudoeste 0 -- -- 56
2020-10-06 18:00:00 22.9 5 Sudoeste 11 Sudoeste 0 -- -- 56
2020-10-06 17:00:00 22.9 6 Sudoeste 15 Sudoeste 0 -- -- 60
2020-10-06 16:00:00 23.4 9 Sudoeste 14 Sur 0 -- -- 62
2020-10-06 15:00:00 23.1 9 Sudoeste 14 Sudoeste 0 -- -- 64
2020-10-06 14:00:00 22.7 10 Sudoeste 14 Sur 0 -- -- 63
2020-10-06 13:00:00 22.5 8 Sudoeste 15 Sur 0 -- -- 61
2020-10-06 12:00:00 22.8 8 Sudoeste 14 Sur 0 -- -- 54
2020-10-06 11:00:00 23 4 Sur 12 Sudeste 0 -- -- 45
2020-10-06 10:00:00 18.9 8 Nordeste 15 Nordeste 0 -- -- 60
2020-10-06 09:00:00 13.9 9 Nordeste 17 Nordeste 0 -- -- 78
2020-10-06 08:00:00 11.3 7 Nordeste 10 Norte 0 -- -- 90
2020-10-06 07:00:00 10.8 4 Noroeste 10 Norte 0 -- -- 91
2020-10-06 06:00:00 11.4 4 Norte 9 Nordeste 0 -- -- 90
2020-10-06 05:00:00 11.7 0 Calma 9 Norte 0 -- -- 88
2020-10-06 04:00:00 11.8 5 Nordeste 8 Nordeste 0 -- -- 88
2020-10-06 03:00:00 12.3 3 Noroeste 8 Nordeste 0 -- -- 91
2020-10-06 02:00:00 12.5 0 Calma 8 Este 0 -- -- 88
2020-10-06 01:00:00 13.1 0 Calma 10 Norte 0 -- -- 87
2020-10-06 00:00:00 13.4 6 Nordeste 9 Nordeste 0 -- -- 88
2020-10-05 23:00:00 14.8 5 Este 12 Nordeste 0 -- -- 85
2020-10-05 22:00:00 15.4 8 Nordeste 13 Norte 0 -- -- 86
2020-10-05 21:00:00 15.7 7 Norte 10 Norte 0 -- -- 85
2020-10-05 20:00:00 18.8 4 Sur 8 Sur 0 -- -- 66
2020-10-05 19:00:00 20.4 2 Nordeste 13 Sudoeste 0 -- -- 58
2020-10-05 18:00:00 21.6 9 Sudoeste 15 Sudoeste 0 -- -- 46
2020-10-05 17:00:00 23.3 6 Sudoeste 20 Sudoeste 0 -- -- 37
2020-10-05 16:00:00 24.9 8 Sudoeste 15 Sudoeste 0 -- -- 29
2020-10-05 15:00:00 24.7 9 Sudoeste 16 Oeste 0 -- -- 31
2020-10-05 14:00:00 24.6 9 Oeste 21 Oeste 0 -- -- 34
2020-10-05 13:00:00 23.1 10 Oeste 18 Oeste 0 -- -- 38
2020-10-05 12:00:00 22.1 6 Oeste 28 Nordeste 0 -- -- 45
2020-10-05 11:00:00 23.6 11 Nordeste 25 Nordeste 0 -- -- 37
2020-10-05 10:00:00 21.1 10 Este 28 Nordeste 0 -- -- 48
2020-10-05 09:00:00 17.9 9 Nordeste 27 Norte 0 -- -- 60
2020-10-05 08:00:00 18 11 Nordeste 28 Norte 0 -- -- 55
2020-10-05 07:00:00 18.6 13 Norte 25 Norte 0 -- -- 58
2020-10-05 06:00:00 14.2 4 Norte 19 Nordeste 0 -- -- 83
2020-10-05 05:00:00 14.8 8 Norte 13 Norte 0 -- -- 82
2020-10-05 04:00:00 14.9 4 Noroeste 9 Noroeste 0 -- -- 85
2020-10-05 03:00:00 16.2 3 Noroeste 7 Sudeste 0 -- -- 84
2020-10-05 02:00:00 17.1 2 Sur 14 Sur 0 -- -- 75
2020-10-05 01:00:00 16.7 5 Sudeste 10 Nordeste 0 -- -- 69
2020-10-05 00:00:00 20.7 5 Norte 35 Noroeste 0 -- -- 43
2020-10-04 23:00:00 22.3 20 Noroeste 35 Noroeste 0 -- -- 37
2020-10-04 22:00:00 22.3 15 Norte 35 Norte 0 -- -- 37
2020-10-04 21:00:00 22.4 19 Norte 34 Noroeste 0 -- -- 37
2020-10-04 20:00:00 18.3 13 Oeste 44 Oeste 0 -- -- 72
2020-10-04 19:00:00 20 22 Oeste 49 Oeste 0 -- -- 57
2020-10-04 18:00:00 20.9 28 Oeste 51 Sudoeste 0 -- -- 50
2020-10-04 17:00:00 20.7 28 Oeste 52 Oeste 0 -- -- 53
2020-10-04 16:00:00 21.4 25 Oeste 52 Oeste 0 -- -- 41
2020-10-04 15:00:00 21 19 Oeste 46 Noroeste 0 -- -- 48
2020-10-04 14:00:00 21.3 26 Oeste 47 Oeste 0 -- -- 44
2020-10-04 13:00:00 20.6 22 Oeste 41 Sudoeste 0 -- -- 46
2020-10-04 12:00:00 20.7 17 Oeste 31 Oeste 0 -- -- 31
2020-10-04 11:00:00 21.2 11 Oeste 21 Oeste 0 -- -- 31
2020-10-04 10:00:00 19.6 4 Oeste 22 Norte 0 -- -- 42
2020-10-04 09:00:00 17.5 16 Norte 28 Noroeste 0 -- -- 43
2020-10-04 08:00:00 15.4 12 Nordeste 26 Nordeste 0 -- -- 47
2020-10-04 07:00:00 15.6 15 Nordeste 29 Nordeste 0 -- -- 46
2020-10-04 06:00:00 13.1 11 Nordeste 22 Norte 0 -- -- 63
2020-10-04 05:00:00 11.1 7 Nordeste 14 Oeste 0 -- -- 79
2020-10-04 04:00:00 10 7 Norte 11 Nordeste 0 -- -- 79
2020-10-04 03:00:00 10.9 3 Nordeste 10 Norte 0 -- -- 79
2020-10-04 02:00:00 12.3 3 Este 10 Norte 0 -- -- 68
2020-10-04 01:00:00 13.7 5 Nordeste 13 Oeste 0 -- -- 64
2020-10-04 00:00:00 18.6 8 Noroeste 31 Noroeste 0 -- -- 31
2020-10-03 23:00:00 19.8 23 Norte 39 Norte 0 -- -- 27
2020-10-03 22:00:00 18.6 15 Noroeste 32 Norte 0 -- -- 30
2020-10-03 21:00:00 19.2 16 Norte 35 Noroeste 0 -- -- 32
2020-10-03 20:00:00 18.6 4 Noroeste 35 Oeste 0 -- -- 45
2020-10-03 19:00:00 20.1 20 Oeste 42 Sudoeste 0 -- -- 38
2020-10-03 18:00:00 19.7 23 Oeste 51 Oeste 0 -- -- 43
2020-10-03 17:00:00 20.2 22 Oeste 47 Oeste 0 -- -- 44
2020-10-03 16:00:00 23 17 Oeste 34 Oeste 0 -- -- 28
2020-10-03 15:00:00 22.1 17 Oeste 34 Oeste 0 -- -- 30
2020-10-03 14:00:00 21.6 19 Oeste 33 Oeste 0 -- -- 28
2020-10-03 13:00:00 19.8 15 Oeste 38 Oeste 0 -- -- 40
2020-10-03 12:00:00 19.4 17 Oeste 32 Sudoeste 0 -- -- 42
2020-10-03 11:00:00 19.5 19 Norte 39 Norte 0 -- -- 35
2020-10-03 10:00:00 17 18 Noroeste 36 Noroeste 0 -- -- 48
2020-10-03 09:00:00 14.5 12 Noroeste 33 Noroeste 0 -- -- 56
2020-10-03 08:00:00 14.8 18 Noroeste 36 Noroeste 0 -- -- 54
2020-10-03 07:00:00 15.1 16 Noroeste 44 Norte 0 -- -- 54
2020-10-03 06:00:00 15.8 22 Norte 51 Norte 0 -- -- 50
2020-10-03 05:00:00 15.9 18 Norte 44 Norte 0 -- -- 51
2020-10-03 04:00:00 16.6 28 Norte 53 Nordeste 0 -- -- 49
2020-10-03 03:00:00 16.7 20 Norte 48 Noroeste 0 -- -- 50
2020-10-03 02:00:00 17.3 21 Norte 48 Norte 0 -- -- 52
2020-10-03 01:00:00 18 21 Noroeste 43 Noroeste 0 -- -- 50
2020-10-03 00:00:00 18.4 22 Noroeste 50 Norte 0 -- -- 50
2020-10-02 23:00:00 19.1 33 Norte 64 Noroeste 0 -- -- 49
2020-10-02 22:00:00 19.2 28 Norte 56 Noroeste 0 -- -- 53
2020-10-02 21:00:00 20.2 19 Noroeste 41 Noroeste 0 -- -- 67
2020-10-02 20:00:00 19.1 18 Oeste 39 Oeste 0.2 -- -- 93
2020-10-02 19:00:00 19.3 25 Oeste 51 Oeste 0.2 -- -- 90
2020-10-02 18:00:00 20.3 26 Oeste 50 Oeste 0 -- -- 80
2020-10-02 17:00:00 21.3 26 Oeste 54 Oeste 0 -- -- 76
2020-10-02 16:00:00 21.4 30 Oeste 60 Oeste 0 -- -- 75
2020-10-02 15:00:00 22.7 30 Oeste 57 Oeste 0 -- -- 68
2020-10-02 14:00:00 21.7 22 Oeste 51 Oeste 0 -- -- 66
2020-10-02 13:00:00 21 28 Oeste 49 Oeste 0 -- -- 71
2020-10-02 12:00:00 22.7 9 Oeste 22 Sudoeste 0 -- -- 58
2020-10-02 11:00:00 20.7 9 Oeste 28 Oeste 0 -- -- 62
2020-10-02 10:00:00 20.2 12 Oeste 24 Oeste 0 -- -- 65
2020-10-02 09:00:00 19.7 6 Oeste 19 Oeste 0 -- -- 64
2020-10-02 08:00:00 17.9 5 Norte 13 Sudoeste 0 -- -- 81
2020-10-02 07:00:00 19.5 5 Sudoeste 13 Sudoeste 0 -- -- 77
2020-10-02 06:00:00 20.7 5 Oeste 18 Oeste 0 -- -- 70
2020-10-02 05:00:00 21.8 7 Noroeste 26 Noroeste 0 -- -- 57
2020-10-02 04:00:00 21.1 6 Norte 26 Sudoeste 0 -- -- 65
2020-10-02 03:00:00 22.6 13 Sudoeste 32 Norte 0 -- -- 66
2020-10-02 02:00:00 23.6 10 Norte 36 Norte 0 -- -- 55
2020-10-02 01:00:00 23.8 17 Norte 32 Noroeste 0 -- -- 54
2020-10-02 00:00:00 17.2 5 Norte 11 Oeste 0 -- -- 92
2020-10-01 23:00:00 16.6 3 Nordeste 11 Norte 0 -- -- 91
2020-10-01 22:00:00 17.5 5 Norte 7 Norte 0 -- -- 88
2020-10-01 21:00:00 20.1 4 Norte 27 Oeste 0 -- -- 80
2020-10-01 20:00:00 21.8 16 Oeste 42 Oeste 0 -- -- 73
2020-10-01 19:00:00 23.4 23 Oeste 46 Sudoeste 0 -- -- 64
2020-10-01 18:00:00 24.5 23 Oeste 50 Oeste 0 -- -- 59
2020-10-01 17:00:00 25.6 21 Oeste 46 Oeste 0 -- -- 56
2020-10-01 16:00:00 26.4 24 Oeste 43 Oeste 0 -- -- 52
2020-10-01 15:00:00 24.7 18 Sudoeste 47 Sudoeste 0 -- -- 64
2020-10-01 14:00:00 24 13 Sudoeste 32 Sudoeste 0 -- -- 66
2020-10-01 13:00:00 22.9 7 Sudoeste 13 Sudoeste 0 -- -- 75
2020-10-01 12:00:00 21.2 7 Sudoeste 11 Sudoeste 0 -- -- 85
2020-10-01 11:00:00 18.9 2 Oeste 12 Sudoeste 0 -- -- 96
2020-10-01 10:00:00 18.3 0 Calma 5 Oeste 0 -- -- 98
2020-10-01 09:00:00 16.9 0 Calma 8 Norte 0 -- -- 98
2020-10-01 08:00:00 15.2 5 Nordeste 9 Norte 0 -- -- 98
2020-10-01 07:00:00 15.3 6 Norte 10 Norte 0 -- -- 96
2020-10-01 06:00:00 16.2 6 Norte 9 Norte 0 -- -- 96
2020-10-01 05:00:00 17.3 5 Norte 9 Norte 0 -- -- 97
2020-10-01 04:00:00 16.6 4 Norte 9 Norte 0 -- -- 97
2020-10-01 03:00:00 16 4 Nordeste 8 Norte 0 -- -- 96
2020-10-01 02:00:00 16.4 5 Norte 10 Norte 0 -- -- 95
2020-10-01 01:00:00 17 4 Norte 7 Norte 0 -- -- 95
2020-10-01 00:00:00 17.5 4 Norte 6 Nordeste 0 -- -- 93